Time;durP1;ratioP1;P1;durP2;ratioP2;P2;SDS_P1;SDS_P2;PMS_P1;PMS_P2;Temp;Humidity;BMP_temperature;BMP_pressure;BME280_temperature;BME280_humidity;BME280_pressure;Samples;Min_cycle;Max_cycle;Signal;HPM_P1;HPM_P2
2021/12/31 00:01:11;;;;;;;8.88;3.10;;;;;;;12.49;95.24;101788.09;5015808;28;20096;-80
2021/12/31 00:03:37;;;;;;;10.75;3.42;;;;;;;12.51;94.88;101778.50;5033502;28;20481;-84
2021/12/31 00:06:02;;;;;;;6.18;2.97;;;;;;;12.50;94.88;101786.34;5033010;28;20026;-79
2021/12/31 00:08:27;;;;;;;9.32;3.03;;;;;;;12.51;94.81;101796.63;5033200;28;20108;-84
2021/12/31 00:10:59;;;;;;;5.90;2.90;;;;;;;12.40;94.48;101756.69;5033063;28;20030;-80
2021/12/31 00:13:24;;;;;;;8.77;3.20;;;;;;;12.49;94.02;101782.09;5031423;28;20033;-83
2021/12/31 00:15:51;;;;;;;10.98;3.03;;;;;;;12.53;93.96;101779.22;5033342;28;20037;-81
2021/12/31 00:18:16;;;;;;;5.97;2.85;;;;;;;12.39;93.75;101752.41;5032911;28;20045;-79
2021/12/31 00:20:42;;;;;;;9.10;3.17;;;;;;;12.58;93.29;101784.13;5032799;28;20025;-80
2021/12/31 00:23:09;;;;;;;8.20;3.00;;;;;;;12.28;93.03;101737.47;5033251;28;20022;-80
2021/12/31 00:25:41;;;;;;;5.55;2.70;;;;;;;12.06;92.42;101702.41;5058768;23;20057;-82
2021/12/31 00:28:21;;;;;;;7.65;2.75;;;;;;;11.32;92.39;101572.78;5052315;28;20086;-80
2021/12/31 00:30:56;;;;;;;8.15;2.92;;;;;;;11.35;92.25;101577.78;5053165;28;20108;-79
2021/12/31 00:33:22;;;;;;;6.15;2.78;;;;;;;12.63;92.36;101782.97;5052750;28;20025;-79
2021/12/31 00:35:57;;;;;;;4.90;2.67;;;;;;;12.63;92.24;101784.72;5052913;28;20032;-79
2021/12/31 00:38:37;;;;;;;7.20;2.75;;;;;;;11.49;92.28;101616.66;5052656;28;20037;-80
2021/12/31 00:41:03;;;;;;;7.57;2.97;;;;;;;12.13;92.26;101704.66;5052659;28;20021;-81
2021/12/31 00:43:28;;;;;;;5.45;2.47;;;;;;;12.60;92.47;101792.69;5052391;28;20071;-78
2021/12/31 00:45:53;;;;;;;5.93;2.40;;;;;;;12.26;92.35;101744.50;5051291;28;20067;-80
2021/12/31 00:48:19;;;;;;;7.43;2.75;;;;;;;12.59;92.37;101793.63;5052893;28;20071;-80
2021/12/31 00:50:44;;;;;;;6.25;2.65;;;;;;;12.52;92.11;101785.34;5052445;28;20075;-80
2021/12/31 00:53:10;;;;;;;9.07;2.78;;;;;;;12.55;92.48;101794.69;5052413;28;20036;-80
2021/12/31 00:55:36;;;;;;;7.88;3.25;;;;;;;12.50;92.37;101784.59;5052418;28;20056;-79
2021/12/31 00:58:01;;;;;;;6.38;2.53;;;;;;;12.33;92.46;101763.97;5052733;28;20087;-81
2021/12/31 01:00:28;;;;;;;6.72;2.70;;;;;;;12.53;92.30;101796.53;5052711;28;20465;-79
2021/12/31 01:02:54;;;;;;;6.28;2.20;;;;;;;12.51;92.54;101794.03;5034725;28;20033;-79
2021/12/31 01:05:19;;;;;;;7.95;3.10;;;;;;;12.23;92.48;101750.69;5052551;28;20029;-80
2021/12/31 01:07:45;;;;;;;7.22;2.60;;;;;;;12.29;92.24;101768.50;5052482;28;20032;-81
2021/12/31 01:10:14;;;;;;;7.43;2.60;;;;;;;12.50;92.38;101797.53;5052351;28;20399;-79
2021/12/31 01:12:43;;;;;;;5.60;2.45;;;;;;;12.35;92.58;101781.06;5051221;28;20135;-80
2021/12/31 01:15:17;;;;;;;8.02;2.50;;;;;;;12.48;92.34;101804.53;5052322;28;20029;-79
2021/12/31 01:20:12;;;;;;;7.50;2.50;;;;;;;12.46;92.13;101800.38;5052377;28;20029;-79
2021/12/31 01:22:38;;;;;;;9.63;2.20;;;;;;;12.46;92.40;101803.81;5051955;28;20491;-81
2021/12/31 01:25:05;;;;;;;9.25;2.63;;;;;;;12.12;92.21;101734.91;5051965;28;20045;-80
2021/12/31 01:27:31;;;;;;;8.18;3.08;;;;;;;12.31;92.55;101773.56;5051942;28;20091;-80
2021/12/31 01:29:56;;;;;;;5.57;2.53;;;;;;;12.41;92.64;101784.28;5052336;28;20063;-79
2021/12/31 01:32:22;;;;;;;8.63;2.58;;;;;;;12.45;92.27;101790.94;5052319;28;20065;-80
2021/12/31 01:34:48;;;;;;;8.48;3.00;;;;;;;12.44;92.41;101795.28;5052216;28;20036;-79
2021/12/31 01:37:16;;;;;;;7.10;2.38;;;;;;;12.29;92.59;101777.97;5052153;28;20524;-83
2021/12/31 01:39:42;;;;;;;5.72;2.90;;;;;;;12.43;92.44;101800.56;5052225;28;20112;-80
2021/12/31 01:42:17;;;;;;;5.90;2.53;;;;;;;12.44;92.18;101816.00;5052261;28;20024;-79
2021/12/31 01:44:52;;;;;;;7.00;2.60;;;;;;;12.07;92.06;101736.91;5050450;28;20037;-81
2021/12/31 01:47:21;;;;;;;8.32;3.13;;;;;;;12.45;92.25;101803.88;5052150;28;20049;-82
2021/12/31 01:49:56;;;;;;;6.88;2.80;;;;;;;12.44;92.21;101820.34;5052482;28;20031;-82
2021/12/31 01:52:22;;;;;;;7.28;2.83;;;;;;;12.45;91.86;101814.25;5051841;28;20358;-79
2021/12/31 01:54:47;;;;;;;7.93;3.15;;;;;;;12.40;91.77;101809.34;5052234;28;20483;-79
2021/12/31 01:57:13;;;;;;;6.55;2.42;;;;;;;12.33;91.82;101798.47;5055259;28;20035;-80
2021/12/31 01:59:40;;;;;;;8.20;2.95;;;;;;;12.45;91.77;101819.44;5055836;28;20023;-81
2021/12/31 02:02:07;;;;;;;7.35;2.45;;;;;;;12.45;91.87;101825.44;5055707;28;20032;-80
2021/12/31 02:04:33;;;;;;;8.85;2.65;;;;;;;12.45;91.67;101824.63;5055587;28;20099;-79
2021/12/31 02:06:59;;;;;;;8.80;2.70;;;;;;;12.41;91.80;101826.53;5055410;28;20032;-81
2021/12/31 02:09:24;;;;;;;8.15;2.38;;;;;;;12.25;91.64;101798.03;5055693;28;20030;-80
2021/12/31 02:11:53;;;;;;;6.72;2.63;;;;;;;12.38;91.49;101818.91;5055772;28;20376;-80
2021/12/31 02:14:24;;;;;;;6.78;2.67;;;;;;;12.23;91.42;101786.09;5055662;28;20044;-82
2021/12/31 02:16:50;;;;;;;8.00;2.83;;;;;;;12.45;91.32;101829.78;5030999;23;20465;-80
2021/12/31 02:19:25;;;;;;;7.10;2.45;;;;;;;12.13;91.50;101772.81;5015750;28;20028;-81
2021/12/31 02:21:51;;;;;;;7.85;2.88;;;;;;;12.43;91.43;101811.75;5016025;28;20022;-79
2021/12/31 02:24:18;;;;;;;8.35;2.70;;;;;;;12.43;91.28;101811.75;5015493;28;20161;-81
2021/12/31 02:26:43;;;;;;;5.63;2.67;;;;;;;12.32;91.39;101793.38;5015553;28;20022;-79
2021/12/31 02:29:08;;;;;;;7.20;2.88;;;;;;;12.09;91.19;101753.19;5013727;28;20042;-78
2021/12/31 02:31:34;;;;;;;7.45;2.53;;;;;;;12.40;91.36;101811.94;5015459;28;20056;-79
2021/12/31 02:33:59;;;;;;;6.18;2.50;;;;;;;12.40;91.25;101813.69;5015488;28;20084;-80
2021/12/31 02:36:25;;;;;;;6.78;2.72;;;;;;;12.41;91.25;101807.59;4997391;28;20057;-80
2021/12/31 02:38:50;;;;;;;7.13;2.80;;;;;;;12.39;91.21;101815.44;5015349;28;20389;-78
2021/12/31 02:41:16;;;;;;;8.55;2.75;;;;;;;12.41;91.11;101799.81;5014906;28;20037;-81
2021/12/31 02:43:41;;;;;;;7.00;2.70;;;;;;;12.32;91.00;101783.84;5015241;28;20061;-82
2021/12/31 02:46:06;;;;;;;8.18;2.50;;;;;;;12.40;91.08;101805.91;5015123;28;20083;-81
2021/12/31 02:48:32;;;;;;;8.25;2.55;;;;;;;12.40;90.98;101803.31;5014890;28;20036;-80
2021/12/31 02:50:59;;;;;;;8.48;3.00;;;;;;;12.16;90.69;101764.03;5015104;28;20022;-80
2021/12/31 02:53:31;;;;;;;8.60;2.45;;;;;;;12.31;91.01;101781.34;5015206;28;20117;-80
2021/12/31 02:56:03;;;;;;;8.02;2.80;;;;;;;12.30;90.97;101779.69;5015105;28;20033;-79
2021/12/31 02:58:33;;;;;;;7.25;2.80;;;;;;;12.34;91.08;101787.19;5015173;28;20037;-81
2021/12/31 03:01:01;;;;;;;5.45;2.47;;;;;;;12.25;90.70;101773.91;5015028;28;20037;-79
2021/12/31 03:03:31;;;;;;;5.35;2.50;;;;;;;12.34;91.00;101792.38;5015065;28;20541;-80
2021/12/31 03:05:57;;;;;;;6.38;2.78;;;;;;;12.35;90.82;101799.22;5014624;28;20026;-81
2021/12/31 03:08:27;;;;;;;5.55;2.20;;;;;;;12.35;90.74;101791.44;5014595;28;20033;-81
2021/12/31 03:10:55;;;;;;;8.30;2.72;;;;;;;12.37;90.72;101799.13;5014973;28;20030;-79
2021/12/31 03:13:21;;;;;;;6.65;2.67;;;;;;;12.35;90.72;101781.06;5014877;28;20033;-79
2021/12/31 03:15:48;;;;;;;10.60;2.90;;;;;;;12.33;90.71;101785.50;5014378;28;20408;-79
2021/12/31 03:18:15;;;;;;;8.10;2.58;;;;;;;11.97;90.54;101722.78;5014595;28;20113;-80
2021/12/31 03:20:57;;;;;;;5.45;2.20;;;;;;;12.29;90.57;101777.97;5014742;28;20030;-81
2021/12/31 03:23:22;;;;;;;9.07;3.05;;;;;;;12.31;90.47;101779.59;5014418;28;20026;-79
2021/12/31 03:25:47;;;;;;;5.63;2.67;;;;;;;12.31;90.60;101781.34;5014498;28;20436;-78
2021/12/31 03:28:12;;;;;;;8.25;2.60;;;;;;;12.29;90.53;101776.25;5014442;28;20033;-80
2021/12/31 03:30:38;;;;;;;6.05;2.70;;;;;;;11.90;90.55;101714.53;5014484;28;20038;-78
2021/12/31 03:33:04;;;;;;;7.53;2.55;;;;;;;11.72;90.81;101708.56;5013067;28;20052;-79
2021/12/31 03:35:29;;;;;;;9.02;3.00;;;;;;;12.03;91.00;101758.72;5012400;28;20362;-82
2021/12/31 03:37:55;;;;;;;6.78;2.45;;;;;;;12.01;91.20;101753.63;5014343;28;20380;-81
2021/12/31 03:40:21;;;;;;;11.93;3.15;;;;;;;12.16;90.96;101771.81;5014338;28;20022;-81
2021/12/31 03:42:46;;;;;;;6.32;2.55;;;;;;;12.17;90.83;101776.91;5012256;28;20098;-81
2021/12/31 03:45:11;;;;;;;7.13;2.72;;;;;;;12.18;90.68;101781.16;5013896;28;20386;-80
2021/12/31 03:47:39;;;;;;;7.93;2.80;;;;;;;12.06;90.91;101759.38;5013978;28;20022;-79
2021/12/31 03:50:05;;;;;;;7.40;2.88;;;;;;;11.67;90.60;101700.19;5013923;28;20034;-79
2021/12/31 03:52:31;;;;;;;10.65;3.30;;;;;;;12.18;90.73;101770.81;5014075;28;20026;-80
2021/12/31 03:54:56;;;;;;;9.07;2.95;;;;;;;11.94;90.77;101735.91;5013710;28;20037;-79
2021/12/31 03:57:21;;;;;;;6.82;2.65;;;;;;;12.16;90.86;101759.69;5013854;28;20117;-79
2021/12/31 03:59:47;;;;;;;9.82;2.95;;;;;;;12.16;90.90;101777.81;5013767;28;20064;-83
2021/12/31 04:02:12;;;;;;;9.45;2.90;;;;;;;12.09;90.65;101763.53;5013817;28;20124;-83
2021/12/31 04:04:38;;;;;;;8.18;3.05;;;;;;;12.13;90.86;101767.66;5012743;28;20100;-81
2021/12/31 04:07:03;;;;;;;7.57;3.17;;;;;;;11.90;90.97;101735.25;5013693;28;20480;-79
2021/12/31 04:09:29;;;;;;;7.28;2.90;;;;;;;11.77;91.23;101716.91;5013784;28;20433;-78
2021/12/31 04:11:54;;;;;;;9.57;3.42;;;;;;;12.12;91.04;101765.97;5013608;28;20040;-80
2021/12/31 04:14:19;;;;;;;8.25;3.20;;;;;;;11.90;91.16;101737.00;5013722;28;20386;-80
2021/12/31 04:16:45;;;;;;;7.53;3.13;;;;;;;12.11;90.92;101769.50;5013448;28;20485;-83
2021/12/31 04:19:10;;;;;;;7.38;3.17;;;;;;;12.07;91.22;101767.97;5011253;28;20038;-80
2021/12/31 04:21:36;;;;;;;6.90;3.13;;;;;;;11.99;91.20;101757.19;5013544;28;20477;-81
2021/12/31 04:26:49;;;;;;;6.85;3.33;;;;;;;12.09;91.12;101762.69;4953013;29;20455;-83
2021/12/31 04:29:15;;;;;;;7.20;3.10;;;;;;;12.11;91.45;101769.50;4952794;29;20039;-79
2021/12/31 04:31:40;;;;;;;8.50;3.45;;;;;;;12.11;91.20;101768.66;4953091;29;20110;-81
2021/12/31 04:34:07;;;;;;;9.43;3.35;;;;;;;11.97;91.47;101739.16;4953075;29;20027;-80
2021/12/31 04:36:32;;;;;;;10.07;3.90;;;;;;;12.00;91.51;101741.59;4952906;29;20031;-79
2021/12/31 04:38:57;;;;;;;15.27;3.55;;;;;;;12.11;91.22;101759.13;4952769;29;20046;-80
2021/12/31 04:41:22;;;;;;;10.07;3.20;;;;;;;12.10;91.34;101749.69;4952773;29;20032;-79
2021/12/31 04:43:49;;;;;;;6.95;3.63;;;;;;;12.10;91.36;101743.69;4952843;29;20058;-80
2021/12/31 04:46:14;;;;;;;8.18;3.50;;;;;;;12.09;91.38;101745.41;4952675;29;20046;-80
2021/12/31 04:48:39;;;;;;;7.97;3.65;;;;;;;12.10;91.34;101741.09;4952724;29;20479;-81
2021/12/31 04:51:05;;;;;;;9.20;3.45;;;;;;;11.69;91.21;101676.81;4952801;29;20120;-78
2021/12/31 04:53:30;;;;;;;7.35;3.85;;;;;;;11.95;91.18;101712.53;4952688;29;20042;-80
2021/12/31 04:55:56;;;;;;;10.38;3.60;;;;;;;12.09;91.22;101739.41;4952638;29;20035;-80
2021/12/31 04:58:21;;;;;;;11.40;3.88;;;;;;;12.08;91.18;101751.50;4952950;29;20039;-79
2021/12/31 05:00:47;;;;;;;10.32;3.63;;;;;;;12.06;91.11;101743.84;4952633;29;20479;-83
2021/12/31 05:03:15;;;;;;;7.93;3.40;;;;;;;11.66;91.00;101680.44;4967609;28;20092;-80
2021/12/31 05:05:43;;;;;;;8.02;3.55;;;;;;;12.00;90.93;101726.06;5012828;28;20033;-82
2021/12/31 05:08:08;;;;;;;10.00;3.55;;;;;;;12.09;91.15;101745.41;5012788;28;20110;-81
2021/12/31 05:10:34;;;;;;;10.18;3.65;;;;;;;12.08;90.79;101751.50;5012892;28;20116;-83
2021/12/31 05:13:01;;;;;;;9.20;3.75;;;;;;;11.97;90.83;101728.78;5012849;28;20370;-81
2021/12/31 05:15:30;;;;;;;9.85;3.65;;;;;;;12.10;90.40;101749.69;5012574;28;20545;-81
2021/12/31 05:17:55;;;;;;;7.97;3.53;;;;;;;12.10;90.48;101754.03;5012896;28;20030;-83
2021/12/31 05:20:21;;;;;;;8.70;3.10;;;;;;;12.04;90.32;101737.06;5011519;28;20037;-82
2021/12/31 05:22:46;;;;;;;9.57;3.55;;;;;;;12.01;89.84;101732.06;5012657;28;20527;-83
2021/12/31 05:25:12;;;;;;;8.07;3.45;;;;;;;12.04;90.11;101727.56;5012607;28;20072;-82
2021/12/31 05:27:38;;;;;;;8.70;3.38;;;;;;;12.00;90.19;101720.06;5012812;28;20064;-81
2021/12/31 05:30:05;;;;;;;7.93;3.25;;;;;;;12.06;90.03;101736.06;5012657;28;20084;-84
2021/12/31 05:32:30;;;;;;;6.68;3.45;;;;;;;12.05;89.96;101731.81;5016364;28;20080;-80
2021/12/31 05:34:56;;;;;;;11.40;3.88;;;;;;;11.85;89.70;101695.00;5016787;28;20477;-80
2021/12/31 05:37:21;;;;;;;9.05;3.38;;;;;;;12.03;89.77;101722.47;5016720;28;20117;-80
2021/12/31 05:39:46;;;;;;;8.48;3.85;;;;;;;11.98;89.64;101711.50;5016458;28;20077;-82
2021/12/31 05:42:12;;;;;;;7.75;3.15;;;;;;;11.99;89.89;101713.19;5016330;28;20097;-80
2021/12/31 05:44:38;;;;;;;7.32;3.38;;;;;;;11.73;89.76;101671.41;5016262;28;20088;-83
2021/12/31 05:47:04;;;;;;;7.85;3.60;;;;;;;11.93;89.91;101710.94;5016449;28;20432;-81
2021/12/31 05:49:29;;;;;;;7.78;4.22;;;;;;;11.86;89.76;101700.09;5016138;28;20076;-82
2021/12/31 05:51:55;;;;;;;7.15;3.67;;;;;;;11.39;89.68;101614.66;5016378;28;20072;-78
2021/12/31 05:54:20;;;;;;;8.10;3.47;;;;;;;11.77;89.73;101703.97;5016663;28;20029;-80
2021/12/31 05:56:46;;;;;;;9.85;3.70;;;;;;;11.69;90.20;101707.88;5015932;28;20366;-82
2021/12/31 05:59:11;;;;;;;8.40;3.55;;;;;;;11.55;90.41;101700.88;5016197;28;20141;-82
2021/12/31 06:01:36;;;;;;;7.45;3.45;;;;;;;11.50;90.84;101702.84;5015986;28;20022;-80
2021/12/31 06:04:05;;;;;;;8.68;3.33;;;;;;;11.50;90.87;101715.78;5014140;28;20042;-79
2021/12/31 06:06:30;;;;;;;7.30;3.40;;;;;;;11.48;91.16;101709.84;5016436;28;20026;-83
2021/12/31 06:08:55;;;;;;;9.15;3.67;;;;;;;11.18;91.03;101676.94;5016110;28;20028;-80
2021/12/31 06:11:21;;;;;;;10.85;3.97;;;;;;;11.31;91.63;101712.50;5016077;28;20091;-79
2021/12/31 06:13:49;;;;;;;9.02;3.40;;;;;;;10.62;91.74;101602.34;5016015;28;20029;-79
2021/12/31 06:16:15;;;;;;;10.13;3.67;;;;;;;10.97;91.89;101677.19;5014473;28;20050;-81
2021/12/31 06:18:40;;;;;;;6.43;3.38;;;;;;;10.94;92.03;101685.13;5016077;28;20022;-79
2021/12/31 06:21:07;;;;;;;7.20;3.28;;;;;;;10.98;92.07;101696.97;5015996;28;20397;-79
2021/12/31 06:23:32;;;;;;;7.50;3.50;;;;;;;10.93;92.36;101698.97;5015881;28;20055;-79
2021/12/31 06:25:58;;;;;;;9.07;3.80;;;;;;;11.09;92.48;101736.84;5092553;23;20111;-83
2021/12/31 06:28:23;;;;;;;6.60;3.33;;;;;;;11.06;92.53;101742.19;5053663;28;20067;-80
2021/12/31 06:30:49;;;;;;;8.85;3.53;;;;;;;10.80;92.68;101693.53;5055180;28;20411;-80
2021/12/31 06:33:14;;;;;;;10.25;3.63;;;;;;;11.01;93.02;101728.66;5055038;28;20469;-81
2021/12/31 06:35:39;;;;;;;9.57;3.83;;;;;;;10.95;92.80;101723.81;5053860;28;20460;-80
2021/12/31 06:38:06;;;;;;;7.18;3.22;;;;;;;10.93;93.08;101733.38;5055199;28;20021;-82
2021/12/31 06:40:31;;;;;;;9.30;3.60;;;;;;;10.91;93.14;101730.88;5037117;28;20405;-81
2021/12/31 06:42:57;;;;;;;7.80;3.35;;;;;;;10.56;93.19;101680.13;5279998;22;20053;-80
2021/12/31 06:45:22;;;;;;;9.00;3.58;;;;;;;10.86;93.06;101737.19;5015366;28;20037;-84
2021/12/31 06:47:48;;;;;;;6.50;3.58;;;;;;;10.45;93.29;101670.31;5014876;28;20041;-80
2021/12/31 06:50:13;;;;;;;8.63;3.63;;;;;;;10.81;93.52;101736.56;5015025;28;20034;-81
2021/12/31 06:52:39;;;;;;;8.48;3.47;;;;;;;10.63;93.49;101715.91;5015405;28;20034;-84
2021/12/31 06:55:10;;;;;;;7.97;3.38;;;;;;;10.44;93.82;101686.72;5015170;28;20030;-81
2021/12/31 06:57:36;;;;;;;9.18;4.00;;;;;;;10.68;93.94;101732.91;5014822;28;20436;-79
2021/12/31 07:00:09;;;;;;;9.23;4.22;;;;;;;10.57;94.13;101734.28;5014949;28;20034;-80
2021/12/31 07:02:35;;;;;;;6.65;3.40;;;;;;;10.63;94.11;101741.72;5014859;28;20117;-81
2021/12/31 07:05:00;;;;;;;7.13;3.22;;;;;;;10.63;94.32;101746.06;5014930;28;20105;-80
2021/12/31 07:07:26;;;;;;;11.00;3.67;;;;;;;10.58;94.16;101754.03;5014775;28;20034;-80
2021/12/31 07:09:51;;;;;;;10.55;3.55;;;;;;;10.62;94.15;101752.16;5014944;28;20026;-80
2021/12/31 07:12:16;;;;;;;9.77;3.58;;;;;;;10.43;94.14;101716.03;5014705;28;20022;-82
2021/12/31 07:14:42;;;;;;;9.27;3.53;;;;;;;10.19;94.06;101684.44;5014654;28;20026;-82
2021/12/31 07:17:08;;;;;;;7.97;3.47;;;;;;;10.60;93.89;101749.59;5014679;28;20069;-83
2021/12/31 07:19:34;;;;;;;9.85;4.10;;;;;;;10.57;94.15;101747.19;5014563;28;20022;-81
2021/12/31 07:22:00;;;;;;;7.75;3.90;;;;;;;10.29;94.09;101697.78;5014806;28;20044;-81
2021/12/31 07:24:26;;;;;;;6.28;3.60;;;;;;;10.17;94.08;101685.44;5014915;28;20033;-83
2021/12/31 07:26:51;;;;;;;7.65;3.33;;;;;;;10.44;94.08;101732.38;4997187;28;20026;-82
2021/12/31 07:29:16;;;;;;;6.43;3.38;;;;;;;10.16;94.19;101688.91;5012660;28;20100;-81
2021/12/31 07:31:42;;;;;;;7.88;3.55;;;;;;;10.15;94.22;101695.81;4996528;28;20935;-84
2021/12/31 07:34:07;;;;;;;8.35;3.60;;;;;;;10.48;94.20;101752.78;5014280;28;20069;-83
2021/12/31 07:36:32;;;;;;;8.13;3.22;;;;;;;10.16;93.84;101699.25;5014541;28;20108;-83
2021/12/31 07:39:02;;;;;;;7.45;3.78;;;;;;;10.40;93.96;101739.41;5014434;28;20069;-82
2021/12/31 07:41:27;;;;;;;8.40;3.40;;;;;;;10.50;94.04;101757.88;5014323;28;20087;-85
2021/12/31 07:43:53;;;;;;;8.98;3.67;;;;;;;10.52;94.11;101758.63;5012553;28;20477;-83
2021/12/31 07:46:18;;;;;;;7.32;3.53;;;;;;;10.33;93.56;101717.38;5014109;28;20033;-83
2021/12/31 07:48:54;;;;;;;7.68;3.85;;;;;;;10.51;93.58;101751.78;5013774;28;20026;-83
2021/12/31 07:51:20;;;;;;;8.93;5.22;;;;;;;10.26;93.47;101721.16;5014075;28;20469;-84
2021/12/31 07:53:45;;;;;;;10.13;3.70;;;;;;;10.29;93.62;101728.75;5013292;28;20033;-82
2021/12/31 07:56:10;;;;;;;6.95;3.80;;;;;;;10.44;94.05;101763.34;5013950;28;20446;-83
2021/12/31 07:58:36;;;;;;;6.75;2.95;;;;;;;10.44;93.96;101755.59;4997765;28;20057;-82
2021/12/31 08:01:01;;;;;;;9.02;3.65;;;;;;;10.45;93.73;101754.69;4994192;28;20084;-83
2021/12/31 08:03:27;;;;;;;7.60;3.80;;;;;;;10.47;93.67;101758.03;4994117;28;20030;-80
2021/12/31 08:05:52;;;;;;;6.82;3.50;;;;;;;10.28;93.32;101729.66;4994207;28;20109;-82
2021/12/31 08:08:18;;;;;;;6.50;3.70;;;;;;;10.47;93.20;101769.19;4994362;28;20360;-81
2021/12/31 08:10:43;;;;;;;11.25;3.80;;;;;;;10.48;93.61;101770.03;4994107;28;20026;-81
2021/12/31 08:13:09;;;;;;;7.28;3.10;;;;;;;10.28;93.02;101733.06;4994150;28;20026;-81
2021/12/31 08:15:34;;;;;;;6.60;3.65;;;;;;;10.50;92.78;101750.13;5008690;28;20072;-80
2021/12/31 08:17:59;;;;;;;6.93;3.00;;;;;;;10.51;92.68;101757.78;4993926;28;20470;-79
2021/12/31 08:20:25;;;;;;;9.30;3.47;;;;;;;10.38;92.71;101736.06;4994074;28;20034;-83
2021/12/31 08:22:51;;;;;;;6.75;3.25;;;;;;;10.54;92.27;101768.00;4994071;28;20028;-81
2021/12/31 08:25:17;;;;;;;5.85;3.25;;;;;;;10.30;92.20;101728.66;4993917;28;20100;-82
2021/12/31 08:27:42;;;;;;;5.35;3.13;;;;;;;10.51;92.24;101744.88;4993657;28;20023;-81
2021/12/31 08:30:08;;;;;;;7.82;3.08;;;;;;;10.35;91.62;101720.72;4993777;28;20503;-84
2021/12/31 08:32:35;;;;;;;8.93;3.58;;;;;;;10.57;91.58;101743.75;4993812;28;20034;-83
2021/12/31 08:35:01;;;;;;;8.35;3.20;;;;;;;10.54;91.21;101739.59;5047272;23;20417;-83
2021/12/31 08:37:26;;;;;;;9.02;3.53;;;;;;;10.52;91.12;101736.25;5053000;28;20021;-84
2021/12/31 08:39:52;;;;;;;7.90;2.90;;;;;;;10.41;90.83;101712.66;5052971;28;20068;-82
2021/12/31 08:42:17;;;;;;;7.55;3.38;;;;;;;10.76;90.61;101754.88;5052868;28;20147;-85
2021/12/31 08:44:43;;;;;;;8.10;3.70;;;;;;;10.76;90.23;101756.63;5052799;28;20033;-84
2021/12/31 08:47:08;;;;;;;5.32;2.88;;;;;;;10.69;89.97;101737.16;5053077;28;20025;-84
2021/12/31 08:49:33;;;;;;;7.03;3.65;;;;;;;10.87;89.93;101755.19;5050944;28;20033;-84
2021/12/31 08:52:00;;;;;;;5.15;3.00;;;;;;;10.94;89.62;101755.72;5052616;28;20032;-84
2021/12/31 08:54:25;;;;;;;8.20;2.92;;;;;;;10.91;89.00;101727.44;5051663;28;20498;-83
2021/12/31 08:56:51;;;;;;;6.32;2.95;;;;;;;10.97;88.71;101729.72;5052675;28;20021;-83
2021/12/31 08:59:19;;;;;;;6.47;2.90;;;;;;;10.84;88.15;101698.50;5052403;28;20025;-82
2021/12/31 09:01:44;;;;;;;7.03;2.83;;;;;;;10.79;88.52;101691.88;5052514;28;20451;-81
2021/12/31 09:04:10;;;;;;;7.22;3.15;;;;;;;11.08;87.88;101729.19;5052274;28;20114;-83
2021/12/31 09:06:35;;;;;;;6.53;2.60;;;;;;;11.14;88.00;101734.88;5104607;23;20111;-81
2021/12/31 09:09:00;;;;;;;8.85;3.00;;;;;;;11.00;88.07;101705.47;5052708;28;20075;-82
2021/12/31 09:11:26;;;;;;;6.43;3.05;;;;;;;11.17;87.44;101734.72;5052482;28;20078;-83
2021/12/31 09:13:54;;;;;;;7.38;3.00;;;;;;;11.16;87.30;101729.63;5052310;28;20028;-82
2021/12/31 09:16:19;;;;;;;7.03;2.88;;;;;;;11.23;87.33;101749.09;5052507;28;20072;-81
2021/12/31 09:18:45;;;;;;;4.90;2.67;;;;;;;11.25;87.14;101741.25;5052581;28;20049;-89
2021/12/31 09:21:10;;;;;;;5.78;2.70;;;;;;;11.29;86.88;101747.94;5052096;28;20453;-84
2021/12/31 09:23:41;;;;;;;6.38;2.97;;;;;;;11.30;87.13;101739.25;5034659;28;20039;-84
2021/12/31 09:26:06;;;;;;;5.17;2.67;;;;;;;11.37;86.82;101754.38;5052249;28;20033;-80
2021/12/31 09:28:38;;;;;;;7.32;2.78;;;;;;;11.42;86.28;101751.56;5052284;28;20356;-86
2021/12/31 09:31:05;;;;;;;5.35;2.38;;;;;;;10.45;86.26;101598.00;5052295;28;20021;-82
2021/12/31 09:33:31;;;;;;;6.95;2.40;;;;;;;10.50;85.82;101598.59;5033772;28;20127;-85
2021/12/31 09:35:56;;;;;;;7.60;2.90;;;;;;;11.22;85.91;101702.63;5033691;28;20504;-82
2021/12/31 09:38:25;;;;;;;5.47;2.60;;;;;;;11.34;86.01;101738.19;5052479;28;20029;-86
2021/12/31 09:40:50;;;;;;;6.18;2.65;;;;;;;11.31;85.80;101752.13;5052087;28;20021;-85
2021/12/31 09:43:16;;;;;;;5.38;2.70;;;;;;;11.47;85.98;101778.03;5051964;28;20035;-85
2021/12/31 09:45:44;;;;;;;7.63;4.13;;;;;;;11.30;85.77;101753.00;5052084;28;20086;-85
2021/12/31 09:48:16;;;;;;;6.55;2.50;;;;;;;11.36;85.67;101759.63;5050936;28;20137;-84
2021/12/31 09:50:46;;;;;;;6.57;3.00;;;;;;;11.52;85.75;101775.22;5052069;28;20107;-84
2021/12/31 09:53:13;;;;;;;6.10;2.83;;;;;;;11.67;85.36;101801.09;5052158;28;20286;-83
2021/12/31 09:55:46;;;;;;;5.35;2.80;;;;;;;11.66;84.91;101785.66;5033674;28;20039;-84
2021/12/31 09:58:14;;;;;;;6.20;2.85;;;;;;;11.71;84.85;101799.22;5052014;28;20025;-85
2021/12/31 10:00:46;;;;;;;6.60;3.17;;;;;;;11.53;84.93;101769.97;5051885;28;20094;-84
2021/12/31 10:03:17;;;;;;;5.18;2.92;;;;;;;11.56;84.85;101772.38;5051639;28;20542;-86
2021/12/31 10:05:48;;;;;;;5.83;2.67;;;;;;;11.45;85.11;101741.91;5049690;28;20496;-82
2021/12/31 10:08:21;;;;;;;6.15;2.95;;;;;;;11.72;85.11;101781.03;5050080;28;20511;-83
2021/12/31 10:11:17;;;;;;;6.55;3.00;;;;;;;11.76;85.03;101787.69;5051907;28;20040;-85
2021/12/31 10:14:01;;;;;;;6.68;3.10;;;;;;;11.73;84.99;101816.31;5051443;28;20431;-85
2021/12/31 10:16:33;;;;;;;12.98;4.43;;;;;;;11.67;85.24;101808.88;5052213;28;20056;-84
2021/12/31 10:19:17;;;;;;;6.43;3.03;;;;;;;11.64;85.38;101782.34;5055204;28;20021;-83
2021/12/31 10:21:44;;;;;;;6.45;3.20;;;;;;;11.48;85.34;101753.81;5055262;28;20036;-85
2021/12/31 10:24:32;;;;;;;8.00;3.47;;;;;;;11.57;85.83;101778.38;5055054;28;20029;-85
2021/12/31 10:27:23;;;;;;;6.35;3.13;;;;;;;11.24;86.14;101716.31;5055608;28;20025;-83
2021/12/31 10:29:56;;;;;;;6.35;3.35;;;;;;;11.61;86.22;101759.22;5054885;28;20491;-83
2021/12/31 10:32:26;;;;;;;7.25;3.80;;;;;;;11.66;85.61;101754.63;5055076;28;20024;-84
2021/12/31 10:35:11;;;;;;;8.20;3.75;;;;;;;11.47;85.77;101726.28;5054617;28;20025;-81
2021/12/31 10:37:51;;;;;;;7.53;3.53;;;;;;;11.84;85.45;101781.31;5055189;28;20527;-82
2021/12/31 10:40:32;;;;;;;7.40;3.50;;;;;;;11.88;84.84;101775.88;5055299;28;20025;-82
2021/12/31 10:43:15;;;;;;;6.53;3.10;;;;;;;11.93;84.70;101767.88;5053733;28;20017;-82
2021/12/31 10:45:54;;;;;;;9.65;3.75;;;;;;;11.87;84.45;101768.19;5054698;28;20029;-83
2021/12/31 10:48:19;;;;;;;6.57;3.53;;;;;;;11.76;84.28;101760.97;5054970;28;20021;-83
2021/12/31 10:50:51;;;;;;;11.57;3.38;;;;;;;11.65;85.06;101758.13;5054747;28;20392;-84
2021/12/31 10:53:32;;;;;;;6.90;3.45;;;;;;;11.82;84.89;101790.91;5054674;28;20040;-83
2021/12/31 10:56:05;;;;;;;6.70;3.47;;;;;;;11.69;84.86;101769.97;5054652;28;20036;-82
2021/12/31 10:58:33;;;;;;;7.00;2.63;;;;;;;11.62;84.92;101760.88;5054806;28;20021;-85
2021/12/31 11:00:59;;;;;;;7.13;3.50;;;;;;;11.85;84.90;101788.16;5054719;28;20377;-86
2021/12/31 11:03:25;;;;;;;5.55;3.10;;;;;;;11.60;84.96;101742.88;5054853;28;20032;-82
2021/12/31 11:05:53;;;;;;;7.10;3.42;;;;;;;11.95;85.12;101781.56;5054489;28;20033;-83
2021/12/31 11:08:19;;;;;;;7.20;3.05;;;;;;;11.78;84.70;101739.28;5054165;28;20041;-82
2021/12/31 11:10:45;;;;;;;8.70;3.67;;;;;;;12.02;84.38;101764.81;5054632;28;20032;-86
2021/12/31 11:13:12;;;;;;;8.82;3.13;;;;;;;12.06;84.71;101761.13;5054442;28;20013;-81
2021/12/31 11:15:37;;;;;;;10.30;4.43;;;;;;;12.09;84.49;101742.00;5052866;28;20083;-84
2021/12/31 11:18:03;;;;;;;5.63;3.47;;;;;;;11.97;84.42;101723.63;5054530;28;20101;-79
2021/12/31 11:20:51;;;;;;;6.00;3.22;;;;;;;10.95;84.09;101523.97;5086215;23;20053;-79
2021/12/31 11:23:17;;;;;;;7.57;3.20;;;;;;;12.30;83.90;101730.47;4996859;28;20385;-85
2021/12/31 11:26:04;;;;;;;6.85;3.60;;;;;;;12.41;83.62;101727.28;5014497;28;20033;-84
2021/12/31 11:28:31;;;;;;;6.65;2.92;;;;;;;12.38;83.86;101706.72;5014390;28;20032;-84
2021/12/31 11:31:16;;;;;;;8.90;3.92;;;;;;;12.33;83.77;101687.09;5014498;28;20022;-84